Time;durP1;ratioP1;P1;durP2;ratioP2;P2;SDS_P1;SDS_P2;PMS_P1;PMS_P2;Temp;Humidity;BMP_temperature;BMP_pressure;BME280_temperature;BME280_humidity;BME280_pressure;Samples;Min_cycle;Max_cycle;Signal;HPM_P1;HPM_P2
2022/07/07 00:00:50;;;;;;;10.30;6.07;;;;;;;18.06;70.04;101982.47;5061314;28;20024;-79
2022/07/07 00:03:15;;;;;;;8.73;6.20;;;;;;;18.04;70.26;101984.44;5071911;28;20020;-79
2022/07/07 00:05:41;;;;;;;10.02;5.97;;;;;;;18.02;70.36;101980.19;5064841;28;20016;-80
2022/07/07 00:08:06;;;;;;;8.05;5.88;;;;;;;18.00;70.28;101977.66;5066010;28;20033;-79
2022/07/07 00:10:33;;;;;;;11.30;6.03;;;;;;;18.00;70.21;101972.28;5057688;28;20082;-79
2022/07/07 00:12:58;;;;;;;9.43;5.57;;;;;;;17.98;69.96;101968.84;5059357;28;20035;-80
2022/07/07 00:15:23;;;;;;;6.90;5.93;;;;;;;18.01;70.41;101973.13;5073487;28;20024;-80
2022/07/07 00:17:49;;;;;;;8.13;6.00;;;;;;;17.99;70.63;101973.25;5067511;28;20130;-79
2022/07/07 00:20:14;;;;;;;9.20;5.72;;;;;;;17.96;70.78;101965.47;5079088;28;20078;-79
2022/07/07 00:22:39;;;;;;;8.23;5.72;;;;;;;17.98;70.46;101968.03;5073570;28;20024;-80
2022/07/07 00:25:06;;;;;;;6.47;5.13;;;;;;;17.97;70.58;101969.00;5066389;28;20036;-80
2022/07/07 00:27:31;;;;;;;6.63;5.55;;;;;;;17.97;70.31;101955.56;5076415;28;20090;-80
2022/07/07 00:29:57;;;;;;;9.10;5.25;;;;;;;17.96;70.47;101952.03;5076517;28;20474;-80
2022/07/07 00:32:22;;;;;;;6.75;5.20;;;;;;;17.95;70.82;101950.31;5076277;28;20032;-80
2022/07/07 00:34:47;;;;;;;7.87;4.87;;;;;;;17.94;71.02;101937.88;5076112;28;20047;-80
2022/07/07 00:37:13;;;;;;;8.20;5.32;;;;;;;17.97;70.40;101940.28;5076499;28;20348;-80
2022/07/07 00:39:38;;;;;;;6.40;4.90;;;;;;;17.95;70.86;101934.19;5076034;28;20028;-80
2022/07/07 00:42:03;;;;;;;7.90;5.13;;;;;;;17.93;70.89;101934.31;5076215;28;20021;-80
2022/07/07 00:44:29;;;;;;;7.65;5.00;;;;;;;17.93;70.86;101928.94;5075979;28;20319;-79
2022/07/07 00:46:55;;;;;;;5.17;4.67;;;;;;;17.92;70.98;101929.13;5057946;28;20386;-80
2022/07/07 00:49:21;;;;;;;5.78;4.63;;;;;;;17.91;70.75;101930.09;5062143;28;20421;-80
2022/07/07 00:51:47;;;;;;;9.70;5.18;;;;;;;17.90;70.68;101921.19;5152833;22;20048;-45
2022/07/07 00:54:12;;;;;;;7.05;4.90;;;;;;;17.91;71.43;101925.56;5098827;28;20067;-47
2022/07/07 00:56:38;;;;;;;11.52;5.20;;;;;;;17.91;71.75;101922.88;5098789;28;20052;-45
2022/07/07 00:59:06;;;;;;;7.45;4.20;;;;;;;17.89;71.12;101918.63;5095589;28;20032;-47
2022/07/07 01:01:39;;;;;;;5.68;4.65;;;;;;;17.90;71.84;101913.13;5098214;28;20051;-46
2022/07/07 01:04:10;;;;;;;10.05;4.53;;;;;;;17.92;71.08;101923.75;5081109;28;20016;-45
2022/07/07 01:06:35;;;;;;;5.95;4.70;;;;;;;17.90;72.05;101921.19;5098209;28;20013;-46
2022/07/07 01:09:02;;;;;;;10.48;4.97;;;;;;;17.90;71.64;101917.63;5081021;28;20086;-47
2022/07/07 01:11:27;;;;;;;7.43;4.82;;;;;;;17.90;71.61;101920.31;5098046;28;20031;-44
2022/07/07 01:13:53;;;;;;;7.68;4.90;;;;;;;17.88;71.43;101920.47;5080202;28;20033;-45
2022/07/07 01:16:18;;;;;;;6.57;4.60;;;;;;;17.88;72.15;101914.25;5097780;28;20697;-45
2022/07/07 01:18:44;;;;;;;7.35;4.60;;;;;;;17.89;71.85;101910.56;5098680;28;20020;-47
2022/07/07 01:21:13;;;;;;;9.60;4.72;;;;;;;17.89;71.91;101915.94;5098453;28;20005;-46
2022/07/07 01:23:38;;;;;;;7.13;4.90;;;;;;;17.88;72.62;101912.41;5080930;28;20033;-44
2022/07/07 01:26:04;;;;;;;8.88;4.85;;;;;;;17.86;72.16;101910.81;5096937;28;20022;-44
2022/07/07 01:28:29;;;;;;;5.95;4.88;;;;;;;17.88;72.16;101920.47;5097587;28;20094;-44
2022/07/07 01:30:58;;;;;;;7.25;4.90;;;;;;;17.87;72.49;101912.53;5079815;28;20040;-48
2022/07/07 01:33:23;;;;;;;6.83;4.90;;;;;;;17.88;71.98;101915.09;5097105;28;20023;-46
2022/07/07 01:35:48;;;;;;;6.43;4.40;;;;;;;17.90;71.93;101898.81;5097652;28;20270;-46
2022/07/07 01:38:14;;;;;;;6.80;4.33;;;;;;;17.90;72.36;101898.81;5096734;28;20028;-47
2022/07/07 01:40:40;;;;;;;7.57;4.43;;;;;;;17.91;72.62;101897.84;5097224;28;20283;-46
2022/07/07 01:43:05;;;;;;;7.47;4.30;;;;;;;17.88;72.64;101896.28;5084516;28;20275;-45
2022/07/07 01:45:31;;;;;;;7.97;4.30;;;;;;;17.88;72.03;101888.22;5096080;28;20025;-45
2022/07/07 01:47:56;;;;;;;5.63;4.57;;;;;;;17.90;72.66;101894.31;5097120;28;20039;-47
2022/07/07 01:50:21;;;;;;;7.40;4.93;;;;;;;17.89;72.68;101891.75;5096564;28;20323;-46
2022/07/07 01:52:46;;;;;;;7.22;4.63;;;;;;;17.87;73.21;101882.97;5096737;28;20312;-47
2022/07/07 01:55:12;;;;;;;6.75;5.13;;;;;;;17.88;73.47;101882.81;5096599;28;20008;-48
2022/07/07 01:57:38;;;;;;;6.90;4.80;;;;;;;17.89;72.94;101886.38;5097219;28;20032;-45
2022/07/07 02:00:03;;;;;;;8.90;4.60;;;;;;;17.89;73.14;101881.84;5065409;28;20048;-49
2022/07/07 02:02:29;;;;;;;6.30;4.97;;;;;;;17.88;73.71;101884.69;5091530;28;20040;-45
2022/07/07 02:04:54;;;;;;;6.05;4.55;;;;;;;17.89;73.08;101886.38;5095300;28;20016;-47
2022/07/07 02:07:19;;;;;;;7.28;4.10;;;;;;;17.92;72.88;101888.81;5097876;28;20051;-45
2022/07/07 02:09:45;;;;;;;6.07;4.60;;;;;;;17.92;73.56;101883.44;5086643;28;20036;-43
2022/07/07 02:12:10;;;;;;;6.82;4.30;;;;;;;17.91;73.45;101879.88;5079857;28;20037;-46
2022/07/07 02:14:37;;;;;;;6.38;4.40;;;;;;;17.90;73.77;101874.63;5088260;28;20088;-45
2022/07/07 02:17:03;;;;;;;7.82;4.55;;;;;;;17.90;73.77;101882.69;5096896;28;20031;-45
2022/07/07 02:19:28;;;;;;;6.95;4.15;;;;;;;17.91;74.18;101879.03;5096844;28;20056;-45
2022/07/07 02:21:53;;;;;;;5.07;3.80;;;;;;;17.94;73.69;101878.75;5084217;28;20034;-46
2022/07/07 02:24:19;;;;;;;7.30;3.72;;;;;;;17.90;74.09;101867.44;5087841;28;20063;-45
2022/07/07 02:26:44;;;;;;;9.35;3.95;;;;;;;17.93;74.05;101872.50;5071657;28;20013;-47
2022/07/07 02:29:10;;;;;;;6.35;3.90;;;;;;;17.91;74.52;101871.81;5096673;28;20596;-45
2022/07/07 02:31:35;;;;;;;5.30;3.60;;;;;;;17.94;74.23;101873.38;5082911;28;20063;-46
2022/07/07 02:34:01;;;;;;;9.73;3.47;;;;;;;17.93;74.44;101872.50;5095807;28;20028;-46
2022/07/07 02:36:27;;;;;;;7.18;3.60;;;;;;;17.94;74.26;101876.91;5091189;28;20052;-47
2022/07/07 02:38:53;;;;;;;7.30;3.95;;;;;;;17.93;74.89;101871.66;5096883;28;20004;-49
2022/07/07 02:41:19;;;;;;;5.95;4.18;;;;;;;17.93;75.04;101868.97;5096856;28;20039;-48
2022/07/07 02:43:44;;;;;;;4.25;3.42;;;;;;;17.92;74.60;101870.00;5092649;28;20043;-44
2022/07/07 02:46:10;;;;;;;5.68;3.58;;;;;;;17.91;75.13;101866.44;5090802;28;20036;-47
2022/07/07 02:48:35;;;;;;;5.25;3.40;;;;;;;17.92;74.85;101870.81;5088617;28;20024;-47
2022/07/07 02:51:00;;;;;;;7.25;3.42;;;;;;;17.93;74.88;101868.97;5093905;28;20055;-46
2022/07/07 02:53:26;;;;;;;5.47;3.30;;;;;;;17.94;74.65;101862.63;5096086;28;20019;-47
2022/07/07 02:55:51;;;;;;;7.63;3.60;;;;;;;17.96;74.72;101870.56;5096087;28;20289;-46
2022/07/07 02:58:19;;;;;;;7.38;3.67;;;;;;;17.96;75.13;101871.38;5096379;28;20074;-45
2022/07/07 03:00:45;;;;;;;7.78;3.85;;;;;;;17.96;75.33;101875.94;5083774;28;20012;-45
2022/07/07 03:03:11;;;;;;;6.03;3.20;;;;;;;17.96;75.13;101871.38;5095368;28;20091;-45
2022/07/07 03:05:36;;;;;;;7.55;3.22;;;;;;;17.96;74.73;101871.38;5096049;28;20025;-47
2022/07/07 03:08:01;;;;;;;6.72;3.33;;;;;;;17.98;75.91;101874.78;5096075;28;20024;-45
2022/07/07 03:10:27;;;;;;;5.07;3.35;;;;;;;17.98;76.10;101872.09;5080579;28;20031;-45
2022/07/07 03:12:53;;;;;;;7.75;3.60;;;;;;;17.99;77.19;101881.03;5078472;28;20036;-44
2022/07/07 03:15:19;;;;;;;8.00;3.80;;;;;;;17.97;76.65;101886.53;5095475;28;20043;-45
2022/07/07 03:17:45;;;;;;;4.68;3.13;;;;;;;17.97;77.35;101883.84;5092295;28;20017;-46
2022/07/07 03:20:12;;;;;;;6.55;3.10;;;;;;;17.93;77.14;101887.78;5086653;28;20013;-44
2022/07/07 03:22:38;;;;;;;4.78;2.40;;;;;;;17.89;76.50;101891.75;5095708;28;20047;-46
2022/07/07 03:25:04;;;;;;;3.60;2.10;;;;;;;17.81;76.16;101884.34;5089090;28;20036;-44
2022/07/07 03:27:30;;;;;;;2.05;1.90;;;;;;;17.75;75.94;101884.91;5096098;28;20084;-45
2022/07/07 03:29:55;;;;;;;3.25;1.95;;;;;;;17.75;75.99;101888.47;5090984;28;20040;-45
2022/07/07 03:32:20;;;;;;;1.92;1.83;;;;;;;17.74;76.17;101899.34;5093784;28;20025;-48
2022/07/07 03:34:45;;;;;;;4.30;1.98;;;;;;;17.63;76.89;101900.31;5092483;28;20119;-46
2022/07/07 03:37:11;;;;;;;3.80;1.77;;;;;;;17.53;78.64;101892.22;5092725;28;20033;-48
2022/07/07 03:39:36;;;;;;;4.72;1.90;;;;;;;17.51;79.20;101904.94;5095728;28;20032;-46
2022/07/07 03:42:01;;;;;;;2.35;1.98;;;;;;;17.38;79.76;101909.69;5095159;28;20041;-45
2022/07/07 03:44:27;;;;;;;5.68;2.20;;;;;;;17.35;80.91;101896.53;5077083;28;20026;-46
2022/07/07 03:46:52;;;;;;;3.42;2.45;;;;;;;17.24;81.40;101891.31;5095899;28;20462;-46
2022/07/07 03:49:17;;;;;;;3.25;2.20;;;;;;;17.18;81.05;101895.34;5086053;28;20036;-46
2022/07/07 03:51:43;;;;;;;2.73;2.47;;;;;;;17.16;81.91;101897.34;5097290;28;20040;-45
2022/07/07 03:54:09;;;;;;;5.53;2.47;;;;;;;17.10;82.46;101892.50;5082108;28;20318;-47
2022/07/07 03:56:35;;;;;;;5.22;2.60;;;;;;;17.11;82.61;101894.22;5097189;28;20092;-48
2022/07/07 03:59:00;;;;;;;3.28;2.20;;;;;;;17.05;83.15;101895.56;5097585;28;20622;-47
2022/07/07 04:01:25;;;;;;;4.50;2.80;;;;;;;17.06;83.46;101891.91;5097285;28;20044;-46
2022/07/07 04:03:51;;;;;;;2.70;2.50;;;;;;;17.03;83.66;101897.56;5091645;28;20299;-45
2022/07/07 04:06:16;;;;;;;3.33;2.70;;;;;;;17.01;84.20;101891.47;5097644;28;20024;-45
2022/07/07 04:08:41;;;;;;;2.75;2.55;;;;;;;17.00;83.41;101885.28;5079961;28;20286;-44
2022/07/07 04:11:06;;;;;;;3.00;2.70;;;;;;;17.00;83.63;101885.28;5097939;28;20054;-45
2022/07/07 04:13:32;;;;;;;4.47;3.33;;;;;;;17.00;84.00;101879.03;5088436;28;20302;-45
2022/07/07 04:15:57;;;;;;;5.53;3.17;;;;;;;17.00;83.22;101862.94;5100186;28;20275;-48
2022/07/07 04:18:23;;;;;;;4.13;3.10;;;;;;;16.97;83.79;101866.75;5075516;28;20028;-45
2022/07/07 04:20:48;;;;;;;4.32;3.10;;;;;;;16.99;84.56;101869.28;5100361;28;20029;-45
2022/07/07 04:23:14;;;;;;;3.47;3.17;;;;;;;17.01;84.05;101875.38;5092733;28;20028;-48
2022/07/07 04:25:39;;;;;;;4.45;3.10;;;;;;;17.00;84.63;101870.97;5099777;28;20028;-44
2022/07/07 04:28:04;;;;;;;4.90;3.30;;;;;;;16.99;85.12;101871.97;5100383;28;20035;-45
2022/07/07 04:30:29;;;;;;;4.47;3.03;;;;;;;16.93;84.73;101875.19;5091311;28;20318;-45
2022/07/07 04:32:55;;;;;;;4.55;2.92;;;;;;;16.92;84.76;101873.47;5082307;28;20289;-45
2022/07/07 04:35:20;;;;;;;3.50;3.20;;;;;;;16.89;85.13;101871.09;5098306;28;20021;-46
2022/07/07 04:37:45;;;;;;;6.57;2.92;;;;;;;16.87;86.12;101876.59;5081691;28;20289;-46
2022/07/07 04:40:11;;;;;;;5.93;3.10;;;;;;;16.86;85.93;101887.44;5099084;28;20067;-50
2022/07/07 04:42:37;;;;;;;4.95;2.70;;;;;;;16.89;86.19;101889.88;5094030;28;20104;-44
2022/07/07 04:45:02;;;;;;;6.75;2.72;;;;;;;16.89;85.92;101897.94;5091429;28;20025;-45
2022/07/07 04:47:28;;;;;;;5.28;2.60;;;;;;;16.88;85.85;101907.78;5099266;28;20013;-46
2022/07/07 04:49:53;;;;;;;3.22;2.40;;;;;;;16.88;86.07;101913.16;5099238;28;20024;-48
2022/07/07 04:52:18;;;;;;;4.32;2.40;;;;;;;16.86;85.57;101917.81;5095168;28;20059;-47
2022/07/07 04:54:44;;;;;;;6.47;2.60;;;;;;;16.82;85.82;101914.50;5098712;28;20048;-50
2022/07/07 04:57:10;;;;;;;3.80;2.10;;;;;;;16.79;85.35;101919.28;5064247;28;20021;-47
2022/07/07 04:59:35;;;;;;;3.05;1.90;;;;;;;16.76;86.51;101916.88;5099589;28;20008;-46
2022/07/07 05:02:01;;;;;;;2.65;1.95;;;;;;;16.76;85.32;101920.41;5099166;28;20029;-45
2022/07/07 05:04:26;;;;;;;3.75;1.92;;;;;;;16.75;85.48;101916.03;5086146;28;20040;-45
2022/07/07 05:06:51;;;;;;;4.20;1.50;;;;;;;16.75;85.90;101924.09;5099276;28;20036;-46
2022/07/07 05:09:17;;;;;;;2.75;1.70;;;;;;;16.75;85.46;101921.41;5095684;28;20035;-48
2022/07/07 05:11:42;;;;;;;3.75;1.50;;;;;;;16.78;85.76;101923.78;5094579;28;20025;-48
2022/07/07 05:14:07;;;;;;;5.53;1.40;;;;;;;16.79;84.99;101928.19;5089106;28;20037;-43
2022/07/07 05:16:33;;;;;;;7.40;1.75;;;;;;;16.78;85.29;101928.31;5085906;28;20291;-46
2022/07/07 05:18:58;;;;;;;3.67;1.58;;;;;;;16.76;86.12;101939.19;5098880;28;20032;-47
2022/07/07 05:21:24;;;;;;;4.07;1.60;;;;;;;16.76;85.38;101943.69;5098485;28;20016;-45
2022/07/07 05:23:49;;;;;;;3.33;1.80;;;;;;;16.75;85.62;101950.91;5088232;28;20302;-47
2022/07/07 05:26:15;;;;;;;3.65;1.52;;;;;;;16.79;86.30;101955.00;5098525;28;20028;-46
2022/07/07 05:28:43;;;;;;;6.78;1.77;;;;;;;16.79;85.79;101949.66;5098742;28;20092;-45
2022/07/07 05:31:14;;;;;;;6.45;2.00;;;;;;;16.74;84.73;101943.84;5095762;28;20485;-46
2022/07/07 05:33:43;;;;;;;4.25;1.58;;;;;;;16.75;85.77;101956.28;5098699;28;20091;-44
2022/07/07 05:36:09;;;;;;;3.53;1.67;;;;;;;16.80;85.95;101956.72;5077601;28;20016;-46
2022/07/07 05:38:34;;;;;;;5.57;1.77;;;;;;;16.86;85.70;101947.31;5098026;28;20055;-47
2022/07/07 05:41:00;;;;;;;6.90;1.58;;;;;;;16.95;85.05;101959.97;5080907;28;20036;-46
2022/07/07 05:43:26;;;;;;;5.65;1.70;;;;;;;16.95;85.18;101956.41;5083794;28;20021;-46
2022/07/07 05:45:51;;;;;;;3.03;1.42;;;;;;;17.01;85.08;101961.25;5097903;28;20040;-47
2022/07/07 05:48:17;;;;;;;5.15;1.85;;;;;;;17.00;85.29;101962.22;5095801;28;20080;-48
2022/07/07 05:50:42;;;;;;;3.28;1.58;;;;;;;17.04;84.75;101963.69;5094063;28;20013;-45
2022/07/07 05:53:09;;;;;;;9.95;1.73;;;;;;;17.09;84.50;101977.56;5096724;28;20048;-46
2022/07/07 05:55:34;;;;;;;4.68;1.50;;;;;;;17.12;83.58;101985.34;5097147;28;20028;-46
2022/07/07 05:57:59;;;;;;;3.50;1.33;;;;;;;17.19;83.47;101985.66;5091220;28;20013;-47
2022/07/07 06:00:25;;;;;;;6.85;1.65;;;;;;;17.18;83.48;101989.31;5090889;28;20286;-45
2022/07/07 06:02:51;;;;;;;4.78;1.67;;;;;;;17.20;82.90;101990.03;5090193;28;20039;-52
2022/07/07 06:05:17;;;;;;;4.82;1.73;;;;;;;17.19;82.89;101996.41;5069656;28;20029;-46
2022/07/07 06:07:42;;;;;;;5.13;1.60;;;;;;;17.13;82.59;102000.44;5054822;28;20025;-47
2022/07/07 06:10:10;;;;;;;4.78;1.90;;;;;;;17.15;83.48;102000.31;5084799;28;20092;-49
2022/07/07 06:12:36;;;;;;;6.25;1.30;;;;;;;17.12;83.30;102012.19;5071647;28;20016;-51
2022/07/07 06:15:02;;;;;;;7.53;1.80;;;;;;;17.14;81.45;102015.59;5074526;28;20033;-50
2022/07/07 06:17:28;;;;;;;7.63;1.63;;;;;;;17.15;81.94;102011.94;5077543;28;21238;-50
2022/07/07 06:19:54;;;;;;;3.70;1.65;;;;;;;17.17;82.32;102025.22;5077667;28;20089;-48
2022/07/07 06:22:19;;;;;;;9.20;1.77;;;;;;;17.19;81.89;102029.47;5077242;28;20064;-48
2022/07/07 06:24:44;;;;;;;7.63;1.90;;;;;;;17.18;80.96;102037.66;5071417;28;20336;-50
2022/07/07 06:27:09;;;;;;;9.52;1.52;;;;;;;17.20;79.69;102038.34;5077702;28;20314;-49
2022/07/07 06:29:35;;;;;;;6.38;1.65;;;;;;;17.19;79.22;102040.19;5078396;28;20025;-48
2022/07/07 06:32:00;;;;;;;11.73;3.15;;;;;;;17.16;79.27;102045.84;5077984;28;20085;-48
2022/07/07 06:34:26;;;;;;;12.50;2.10;;;;;;;17.16;77.77;102037.78;5078366;28;20005;-49
2022/07/07 06:36:51;;;;;;;7.25;1.83;;;;;;;17.18;77.16;102046.53;5057891;28;20045;-48
2022/07/07 06:39:16;;;;;;;13.37;2.53;;;;;;;17.29;77.61;102050.16;5078239;28;20028;-48
2022/07/07 06:41:42;;;;;;;10.15;2.28;;;;;;;17.38;76.93;102039.44;5077887;28;20283;-48
2022/07/07 06:44:11;;;;;;;8.90;1.80;;;;;;;17.46;76.52;102051.38;5077688;28;20013;-46
2022/07/07 06:46:37;;;;;;;10.30;2.38;;;;;;;17.65;76.16;102056.88;5077573;28;20048;-48
2022/07/07 06:49:02;;;;;;;8.10;2.00;;;;;;;17.76;75.62;102064.81;5077903;28;20029;-47
2022/07/07 06:51:28;;;;;;;12.13;2.60;;;;;;;17.74;74.21;102076.69;5076572;28;20033;-46
2022/07/07 06:53:53;;;;;;;15.15;2.95;;;;;;;17.72;74.88;102087.56;5074631;28;20510;-48
2022/07/07 06:56:19;;;;;;;13.65;2.50;;;;;;;17.67;74.33;102084.44;5093541;28;20008;-49
2022/07/07 06:58:44;;;;;;;3.93;1.30;;;;;;;17.53;74.73;102093.69;5079373;28;20101;-48
2022/07/07 07:01:10;;;;;;;6.38;2.00;;;;;;;17.33;75.70;102086.50;5085116;28;20274;-46
2022/07/07 07:03:35;;;;;;;9.25;2.13;;;;;;;17.34;75.06;102088.22;5082827;28;20016;-48
2022/07/07 07:06:01;;;;;;;6.80;1.70;;;;;;;17.62;77.36;102088.50;5066647;28;20025;-48
2022/07/07 07:08:26;;;;;;;7.80;1.90;;;;;;;17.82;76.90;102079.56;5066325;28;20025;-49
2022/07/07 07:10:51;;;;;;;6.15;1.45;;;;;;;17.99;74.77;102075.41;5085733;28;20039;-48
2022/07/07 07:13:16;;;;;;;10.33;2.10;;;;;;;18.20;73.47;102066.41;5073965;28;20030;-51
2022/07/07 07:15:42;;;;;;;7.57;1.60;;;;;;;18.45;75.04;102083.88;5067358;28;20275;-48
2022/07/07 07:18:07;;;;;;;4.73;1.77;;;;;;;18.78;71.59;102081.78;5059355;28;20284;-49
2022/07/07 07:20:33;;;;;;;3.87;1.63;;;;;;;19.16;71.21;102080.09;5077814;28;20289;-46
2022/07/07 07:22:58;;;;;;;5.85;1.40;;;;;;;19.40;70.95;102088.56;5059734;28;20314;-46
2022/07/07 07:25:24;;;;;;;7.60;1.77;;;;;;;19.60;67.99;102086.66;5077981;28;20027;-47
2022/07/07 07:27:49;;;;;;;6.95;1.83;;;;;;;19.73;69.07;102080.97;5078182;28;20032;-48
2022/07/07 07:30:15;;;;;;;5.97;1.80;;;;;;;19.98;66.51;102088.53;5077517;28;20040;-50
2022/07/07 07:32:40;;;;;;;8.73;2.08;;;;;;;20.31;66.81;102092.47;5076494;28;20047;-48
2022/07/07 07:35:06;;;;;;;6.68;1.80;;;;;;;20.37;63.75;102096.41;5077419;28;20009;-50
2022/07/07 07:37:31;;;;;;;5.00;1.40;;;;;;;20.37;63.75;102109.91;5060286;28;20041;-48
2022/07/07 07:39:56;;;;;;;5.23;1.93;;;;;;;20.24;64.39;102110.28;5076732;28;20013;-47
2022/07/07 07:42:22;;;;;;;13.23;2.05;;;;;;;20.17;64.11;102107.34;5076827;28;20271;-49
2022/07/07 07:47:31;;;;;;;5.20;1.90;;;;;;;19.89;63.69;102106.47;5077673;28;20294;-48
2022/07/07 07:49:56;;;;;;;5.75;1.63;;;;;;;19.76;64.11;102131.88;5060761;28;20025;-48
2022/07/07 07:52:22;;;;;;;7.90;1.85;;;;;;;19.64;63.83;102119.56;5077298;28;20036;-48
2022/07/07 07:54:47;;;;;;;7.85;1.70;;;;;;;19.56;64.80;102131.06;5077915;28;20028;-48
2022/07/07 07:57:12;;;;;;;10.23;2.00;;;;;;;19.33;65.15;102133.22;5074884;28;20028;-48
2022/07/07 07:59:38;;;;;;;7.68;2.20;;;;;;;19.10;68.16;102139.91;5054538;28;20028;-50
2022/07/07 08:02:03;;;;;;;6.32;1.73;;;;;;;18.95;69.19;102150.25;5084874;28;20024;-48
2022/07/07 08:04:29;;;;;;;4.10;1.50;;;;;;;18.82;69.25;102150.50;5076271;28;20020;-49
2022/07/07 08:06:54;;;;;;;5.25;1.30;;;;;;;18.75;69.96;102142.16;5069342;28;20041;-50
2022/07/07 08:09:19;;;;;;;3.25;1.27;;;;;;;18.78;70.18;102141.84;5070339;28;20032;-51
2022/07/07 08:11:45;;;;;;;7.87;1.67;;;;;;;18.83;71.58;102133.38;5077178;28;20075;-49
2022/07/07 08:14:10;;;;;;;9.37;1.67;;;;;;;18.86;71.45;102144.72;5077182;28;20267;-49
2022/07/07 08:16:36;;;;;;;6.40;1.80;;;;;;;19.18;71.21;102134.66;5077626;28;20351;-49
2022/07/07 08:19:02;;;;;;;5.57;1.60;;;;;;;19.35;71.20;102138.47;5077561;28;20045;-50
2022/07/07 08:21:27;;;;;;;8.15;1.55;;;;;;;19.48;71.10;102147.09;5060225;28;20021;-48
2022/07/07 08:23:52;;;;;;;4.83;1.33;;;;;;;19.63;68.99;102141.28;5077515;28;20017;-50
2022/07/07 08:26:17;;;;;;;3.13;1.17;;;;;;;19.92;68.76;102143.91;5077188;28;20311;-50
2022/07/07 08:28:43;;;;;;;6.43;1.50;;;;;;;20.29;69.14;102149.28;5077127;28;20329;-49
2022/07/07 08:31:08;;;;;;;5.55;1.50;;;;;;;20.40;67.26;102150.94;5077357;28;20351;-47
2022/07/07 08:33:34;;;;;;;4.25;1.40;;;;;;;20.27;65.18;102143.19;5079570;28;20057;-48
2022/07/07 08:36:00;;;;;;;4.38;1.38;;;;;;;20.22;66.16;102148.19;5081161;28;20013;-47
2022/07/07 08:38:25;;;;;;;6.80;1.95;;;;;;;20.08;64.75;102173.78;5080802;28;20059;-48
2022/07/07 08:40:51;;;;;;;7.32;1.58;;;;;;;19.85;64.49;102165.22;5081257;28;20025;-51
2022/07/07 08:43:17;;;;;;;7.40;1.60;;;;;;;19.65;64.49;102155.44;5080622;28;20048;-49
2022/07/07 08:45:42;;;;;;;5.55;1.77;;;;;;;19.64;63.24;102172.63;5080996;28;20072;-49
2022/07/07 08:48:08;;;;;;;6.03;1.60;;;;;;;19.51;65.04;102179.16;5063774;28;20037;-51
2022/07/07 08:50:35;;;;;;;5.00;1.55;;;;;;;19.57;66.73;102169.66;5069772;28;20032;-49
2022/07/07 08:53:01;;;;;;;4.60;1.40;;;;;;;19.93;65.90;102156.38;5074328;28;20055;-48
2022/07/07 08:55:30;;;;;;;5.82;1.40;;;;;;;20.47;65.10;102164.69;5080789;28;20047;-48
2022/07/07 08:57:55;;;;;;;8.90;1.80;;;;;;;20.55;64.12;102164.78;5080382;28;20017;-46
2022/07/07 09:00:22;;;;;;;5.63;1.60;;;;;;;20.52;62.78;102174.03;5080479;28;20027;-48
2022/07/07 09:02:49;;;;;;;9.32;2.38;;;;;;;20.52;63.98;102176.72;5080773;28;20980;-48
2022/07/07 09:05:14;;;;;;;4.30;1.48;;;;;;;20.41;63.19;102181.47;5080438;28;20037;-51
2022/07/07 09:07:53;;;;;;;6.57;1.90;;;;;;;20.47;63.74;102187.13;5080280;28;20040;-48
2022/07/07 09:10:29;;;;;;;8.38;1.55;;;;;;;20.24;62.67;102189.34;5073678;28;20024;-50
2022/07/07 09:12:55;;;;;;;6.93;1.60;;;;;;;20.04;63.36;102191.28;5098776;28;20009;-48
2022/07/07 09:15:21;;;;;;;6.47;1.75;;;;;;;20.02;64.25;102195.09;5069313;28;20013;-48
2022/07/07 09:17:46;;;;;;;5.75;1.70;;;;;;;20.04;63.35;102193.13;5100750;28;20034;-49
2022/07/07 09:20:12;;;;;;;7.30;1.70;;;;;;;20.22;64.99;102185.97;5082044;28;20012;-50
2022/07/07 09:22:55;;;;;;;5.82;1.58;;;;;;;20.22;63.44;102191.34;5097705;28;20043;-50
2022/07/07 09:25:25;;;;;;;3.97;1.38;;;;;;;20.41;62.24;102197.66;5098332;28;20013;-47
2022/07/07 09:28:02;;;;;;;5.03;1.30;;;;;;;20.76;61.82;102202.31;5090160;28;20143;-50
2022/07/07 09:30:45;;;;;;;6.50;1.98;;;;;;;20.92;61.31;102204.38;5089724;28;20013;-48
2022/07/07 09:33:25;;;;;;;5.68;1.30;;;;;;;20.76;60.57;102199.63;5066782;28;20013;-49
2022/07/07 09:38:39;;;;;;;4.47;1.33;;;;;;;20.67;59.23;102214.03;5097901;28;20077;-50
2022/07/07 09:41:08;;;;;;;4.25;1.10;;;;;;;20.66;60.39;102213.16;5087789;28;20014;-48
2022/07/07 09:43:43;;;;;;;4.10;1.35;;;;;;;20.65;59.69;102218.72;5095924;28;20025;-49
2022/07/07 09:46:21;;;;;;;3.92;1.10;;;;;;;20.64;60.98;102225.97;5099454;28;20091;-48
2022/07/07 09:48:52;;;;;;;3.97;1.20;;;;;;;20.57;60.09;102232.97;5099776;28;20028;-47
2022/07/07 09:51:32;;;;;;;4.38;1.35;;;;;;;20.53;60.74;102234.25;5092871;28;20017;-48
2022/07/07 09:54:05;;;;;;;4.78;0.90;;;;;;;20.39;60.08;102245.53;5095428;28;20033;-46
2022/07/07 09:56:37;;;;;;;2.95;1.02;;;;;;;20.19;60.02;102255.56;5099902;28;20020;-45
2022/07/07 09:59:06;;;;;;;6.30;1.55;;;;;;;20.02;61.20;102260.69;5096667;28;20040;-48
2022/07/07 10:01:34;;;;;;;7.05;1.35;;;;;;;19.89;62.58;102268.25;5087897;28;20051;-49
2022/07/07 10:04:04;;;;;;;6.40;2.10;;;;;;;19.70;64.68;102271.75;5099525;28;20028;-48
2022/07/07 10:06:30;;;;;;;;;;;;;;;19.98;63.20;102275.44;5093356;28;20051;-46
2022/07/07 10:09:19;;;;;;;3.92;1.23;;;;;;;19.67;65.57;102272.03;5085564;28;20208;-49
2022/07/07 10:11:46;;;;;;;6.78;1.35;;;;;;;19.68;68.15;102262.97;5086459;28;20042;-47
2022/07/07 10:14:17;;;;;;;6.85;1.67;;;;;;;19.85;67.72;102273.09;5082033;28;20028;-47
2022/07/07 10:16:45;;;;;;;9.25;1.98;;;;;;;20.00;67.66;102278.00;5090656;28;20119;-46
2022/07/07 10:19:12;;;;;;;4.55;1.60;;;;;;;19.99;66.31;102282.56;5086995;28;20032;-48
2022/07/07 10:21:41;;;;;;;4.22;1.30;;;;;;;20.04;66.74;102280.28;5094857;28;20016;-50
2022/07/07 10:24:07;;;;;;;4.00;1.30;;;;;;;19.95;64.77;102286.53;5088562;28;20020;-46
2022/07/07 10:26:37;;;;;;;6.03;1.15;;;;;;;19.82;65.08;102285.97;5098914;28;20031;-50
2022/07/07 10:29:04;;;;;;;6.57;1.15;;;;;;;19.79;64.94;102281.72;5072506;28;20029;-48
2022/07/07 10:31:30;;;;;;;5.18;1.40;;;;;;;19.67;65.39;102290.91;5078272;28;20005;-48
2022/07/07 10:34:03;;;;;;;6.78;1.23;;;;;;;19.60;66.91;102291.50;5075518;28;20037;-48
2022/07/07 10:36:50;;;;;;;2.95;0.98;;;;;;;19.75;66.64;102305.44;5070224;28;20016;-46
2022/07/07 10:39:17;;;;;;;6.57;1.23;;;;;;;19.76;66.64;102298.19;5063997;28;20013;-46
2022/07/07 10:42:06;;;;;;;4.35;1.00;;;;;;;19.94;65.36;102301.88;5068012;28;20028;-47
2022/07/07 10:44:33;;;;;;;3.53;1.02;;;;;;;19.99;65.16;102304.13;5071970;28;20036;-48
2022/07/07 10:47:03;;;;;;;3.50;1.08;;;;;;;20.06;64.72;102296.31;5078066;28;20017;-48
2022/07/07 10:49:53;;;;;;;3.85;0.98;;;;;;;20.13;64.30;102297.44;5066552;28;20120;-46
2022/07/07 10:52:21;;;;;;;6.95;1.10;;;;;;;19.97;63.89;102316.91;5077860;28;20059;-48
2022/07/07 10:55:04;;;;;;;5.60;1.35;;;;;;;19.86;65.18;102317.06;5077201;28;20024;-46
2022/07/07 10:57:40;;;;;;;2.60;1.05;;;;;;;19.73;67.25;102333.47;5078318;28;20013;-48
2022/07/07 11:00:09;;;;;;;2.60;1.33;;;;;;;19.60;67.63;102325.66;5077598;28;20067;-46
2022/07/07 11:02:50;;;;;;;4.63;1.02;;;;;;;19.51;66.63;102338.16;5077848;28;20056;-51
2022/07/07 11:05:15;;;;;;;3.90;1.13;;;;;;;19.41;66.61;102343.50;5074062;28;20041;-49
2022/07/07 11:07:42;;;;;;;4.53;1.25;;;;;;;19.45;68.55;102336.03;5077771;28;20031;-48
2022/07/07 11:10:10;;;;;;;4.45;1.30;;;;;;;19.48;67.71;102340.28;5092127;28;20033;-45
2022/07/07 11:12:41;;;;;;;4.65;1.45;;;;;;;19.54;67.72;102345.13;5086441;28;20037;-47
2022/07/07 11:15:22;;;;;;;5.88;1.38;;;;;;;19.71;68.02;102352.50;5072144;28;20060;-47
2022/07/07 11:18:06;;;;;;;5.15;1.48;;;;;;;19.86;67.77;102342.16;5089664;28;20088;-47
2022/07/07 11:20:32;;;;;;;4.55;1.67;;;;;;;19.92;66.94;102340.78;5077639;28;20036;-47
2022/07/07 11:23:13;;;;;;;6.75;1.88;;;;;;;20.02;66.96;102341.59;5077486;28;20029;-48
2022/07/07 11:25:40;;;;;;;5.05;1.90;;;;;;;19.95;65.93;102357.50;5070398;28;20051;-49
2022/07/07 11:28:08;;;;;;;6.70;1.90;;;;;;;19.90;66.65;102361.59;5079532;28;20020;-47